Time;durP1;ratioP1;P1;durP2;ratioP2;P2;SDS_P1;SDS_P2;PMS_P1;PMS_P2;Temp;Humidity;BMP_temperature;BMP_pressure;BME280_temperature;BME280_humidity;BME280_pressure;Samples;Min_cycle;Max_cycle;Signal;HPM_P1;HPM_P2
2023/02/22 06:38:48;;;;;;;13.53;10.03;;;;;;;;;;5124109;22;21046;-88
2023/02/22 06:41:55;;;;;;;13.63;10.07;;;;;;;;;;5041027;28;21236;-88
2023/02/22 06:44:59;;;;;;;23.23;14.00;;;;;;;;;;5040880;28;20558;-88
2023/02/22 06:48:03;;;;;;;43.60;24.43;;;;;;;;;;5056706;28;20588;-88
2023/02/22 06:51:08;;;;;;;39.97;22.20;;;;;;;;;;5060971;28;20556;-88
2023/02/22 06:54:13;;;;;;;38.13;20.80;;;;;;;;;;5072055;28;20552;-88
2023/02/22 06:57:17;;;;;;;17.77;11.43;;;;;;;;;;5060795;28;20566;-88
2023/02/22 07:00:24;;;;;;;14.63;9.50;;;;;;;;;;5060618;28;20226;-88
2023/02/22 07:03:27;;;;;;;18.67;9.40;;;;;;;;;;5072241;28;21110;-88
2023/02/22 07:06:32;;;;;;;17.57;8.87;;;;;;;;;;5072119;28;21110;-88
2023/02/22 07:09:35;;;;;;;12.73;8.90;;;;;;;;;;5071893;28;20612;-88
2023/02/22 07:12:40;;;;;;;10.33;7.87;;;;;;;;;;5072337;28;20194;-88
2023/02/22 07:15:44;;;;;;;12.63;8.50;;;;;;;;;;5060310;28;20518;-88
2023/02/22 07:18:48;;;;;;;29.50;18.77;;;;;;;;;;5083258;28;20218;-88
2023/02/22 07:21:57;;;;;;;22.20;14.77;;;;;;;;;;5060139;28;20292;-88
2023/02/22 07:25:02;;;;;;;16.17;11.23;;;;;;;;;;5071690;28;20190;-88
2023/02/22 07:28:06;;;;;;;17.10;11.87;;;;;;;;;;5071712;28;20238;-88
2023/02/22 07:31:10;;;;;;;16.47;11.57;;;;;;;;;;5071489;28;20179;-89
2023/02/22 07:34:14;;;;;;;18.13;12.70;;;;;;;;;;5083139;28;20182;-88
2023/02/22 07:37:20;;;;;;;18.57;13.27;;;;;;;;;;5082820;28;20179;-88
2023/02/22 07:40:25;;;;;;;18.00;12.37;;;;;;;;;;5059897;28;20568;-88
2023/02/22 07:43:30;;;;;;;14.17;10.73;;;;;;;;;;5071097;28;20190;-88
2023/02/22 07:46:36;;;;;;;15.10;10.37;;;;;;;;;;5060300;28;20210;-89
2023/02/22 07:49:40;;;;;;;13.27;9.00;;;;;;;;;;5071147;28;20219;-88
2023/02/22 07:52:46;;;;;;;12.27;9.23;;;;;;;;;;5082610;28;20195;-88
2023/02/22 07:55:51;;;;;;;12.93;9.07;;;;;;;;;;5070548;28;20179;-88
2023/02/22 07:58:55;;;;;;;11.87;8.27;;;;;;;;;;5071023;28;20218;-88
2023/02/22 08:01:59;;;;;;;14.20;8.80;;;;;;;;;;5059630;28;20222;-88
2023/02/22 08:05:05;;;;;;;14.37;8.40;;;;;;;;;;5071525;28;20637;-88
2023/02/22 08:08:09;;;;;;;14.90;8.50;;;;;;;;;;5071091;28;20218;-88
2023/02/22 08:11:14;;;;;;;13.60;8.70;;;;;;;;;;5060100;28;20178;-88
2023/02/22 08:14:18;;;;;;;13.80;9.80;;;;;;;;;;5071385;28;20187;-88
2023/02/22 08:17:22;;;;;;;11.40;8.90;;;;;;;;;;5071126;28;20175;-88
2023/02/22 08:20:27;;;;;;;11.60;9.00;;;;;;;;;;5070602;28;20178;-88
2023/02/22 08:23:32;;;;;;;13.50;8.53;;;;;;;;;;5059466;28;20526;-88
2023/02/22 08:26:42;;;;;;;12.77;9.00;;;;;;;;;;5082270;28;20198;-88
2023/02/22 08:29:47;;;;;;;12.37;9.70;;;;;;;;;;5071532;28;20215;-88
2023/02/22 08:32:51;;;;;;;14.67;8.47;;;;;;;;;;5071648;28;20183;-88
2023/02/22 08:35:56;;;;;;;11.50;9.20;;;;;;;;;;5070908;28;20629;-88
2023/02/22 08:39:00;;;;;;;11.23;8.27;;;;;;;;;;5082293;28;20226;-88
2023/02/22 08:42:05;;;;;;;12.50;9.57;;;;;;;;;;5071825;28;20210;-86
2023/02/22 08:45:12;;;;;;;12.67;9.40;;;;;;;;;;5071760;28;20183;-89
2023/02/22 08:48:17;;;;;;;10.90;8.80;;;;;;;;;;5070482;28;20562;-88
2023/02/22 08:51:21;;;;;;;12.27;8.40;;;;;;;;;;5081933;28;20175;-89
2023/02/22 08:54:25;;;;;;;12.43;9.40;;;;;;;;;;5070200;28;20179;-89
2023/02/22 08:57:30;;;;;;;13.20;9.50;;;;;;;;;;5070133;28;20183;-88
2023/02/22 09:00:37;;;;;;;12.77;8.40;;;;;;;;;;5070001;28;20633;-89
2023/02/22 09:03:41;;;;;;;12.33;9.07;;;;;;;;;;5070317;28;20199;-88
2023/02/22 09:06:50;;;;;;;9.60;8.27;;;;;;;;;;5070955;28;20179;-86
2023/02/22 09:09:54;;;;;;;13.03;8.10;;;;;;;;;;5070625;28;20210;-86
2023/02/22 09:12:59;;;;;;;11.37;8.20;;;;;;;;;;5059267;28;20182;-86
2023/02/22 09:16:04;;;;;;;10.70;8.30;;;;;;;;;;5059463;28;20684;-87
2023/02/22 09:19:08;;;;;;;11.57;7.53;;;;;;;;;;5070725;28;20218;-87
2023/02/22 09:22:13;;;;;;;12.87;8.00;;;;;;;;;;5070870;28;20217;-86
2023/02/22 09:25:19;;;;;;;14.73;11.00;;;;;;;;;;5071407;28;20660;-87
2023/02/22 09:28:23;;;;;;;13.90;7.63;;;;;;;;;;5059989;28;20222;-87
2023/02/22 09:31:28;;;;;;;9.97;7.20;;;;;;;;;;5072001;28;20175;-87
2023/02/22 09:34:34;;;;;;;10.30;7.43;;;;;;;;;;5072253;28;20634;-86
2023/02/22 09:37:38;;;;;;;8.70;7.10;;;;;;;;;;5072521;28;20202;-86
2023/02/22 09:41:07;;;;;;;10.10;7.17;;;;;;;;;;5072450;28;20179;-87
2023/02/22 09:44:21;;;;;;;8.67;7.13;;;;;;;;;;5072563;28;20178;-87
2023/02/22 09:47:38;;;;;;;10.40;7.37;;;;;;;;;;5060531;28;20534;-87
2023/02/22 09:50:45;;;;;;;9.93;6.97;;;;;;;;;;5072308;28;20190;-87
2023/02/22 09:53:51;;;;;;;11.87;9.00;;;;;;;;;;5082050;28;20194;-88
2023/02/22 09:56:59;;;;;;;12.47;7.30;;;;;;;;;;5070921;28;20202;-88
2023/02/22 10:00:20;;;;;;;13.37;8.47;;;;;;;;;;5070838;28;20293;-88
2023/02/22 10:03:47;;;;;;;22.53;13.23;;;;;;;;;;5058880;28;20190;-88
2023/02/22 10:07:04;;;;;;;10.17;7.60;;;;;;;;;;5070665;28;20182;-88
2023/02/22 10:10:17;;;;;;;12.13;7.10;;;;;;;;;;5058591;28;20191;-88
2023/02/22 10:13:38;;;;;;;8.10;7.20;;;;;;;;;;5069941;28;20175;-88
2023/02/22 10:16:59;;;;;;;9.80;6.23;;;;;;;;;;5070433;28;20187;-88
2023/02/22 10:20:15;;;;;;;8.53;4.43;;;;;;;;;;5072409;28;20179;-88
2023/02/22 10:23:48;;;;;;;6.77;4.43;;;;;;;;;;5073648;28;20179;-88
2023/02/22 10:26:56;;;;;;;4.77;3.47;;;;;;;;;;5073888;28;20179;-88
2023/02/22 10:30:13;;;;;;;4.10;2.93;;;;;;;;;;5073736;28;20653;-88
2023/02/22 10:33:28;;;;;;;3.27;2.93;;;;;;;;;;5073698;28;20526;-88
2023/02/22 10:36:33;;;;;;;3.70;3.00;;;;;;;;;;5085143;28;20681;-88
2023/02/22 10:39:39;;;;;;;4.57;2.97;;;;;;;;;;5061641;28;20222;-88
2023/02/22 10:42:43;;;;;;;3.63;2.90;;;;;;;;;;5061559;28;20601;-88
2023/02/22 10:45:52;;;;;;;3.47;3.00;;;;;;;;;;5061973;28;20178;-88
2023/02/22 10:49:07;;;;;;;3.13;2.73;;;;;;;;;;5073484;28;20214;-87
2023/02/22 10:52:24;;;;;;;3.63;2.87;;;;;;;;;;5073114;28;20171;-88
2023/02/22 10:55:29;;;;;;;3.20;2.70;;;;;;;;;;5073583;28;20183;-88
2023/02/22 10:58:41;;;;;;;5.13;2.67;;;;;;;;;;5073938;28;20222;-88
2023/02/22 11:01:46;;;;;;;4.30;2.67;;;;;;;;;;5072412;28;20566;-88
2023/02/22 11:04:53;;;;;;;3.60;2.57;;;;;;;;;;5074310;28;20182;-88
2023/02/22 11:08:14;;;;;;;3.87;3.03;;;;;;;;;;5079460;28;20219;-88
2023/02/22 11:11:24;;;;;;;3.83;2.70;;;;;;;;;;5091994;28;20183;-88
2023/02/22 11:14:29;;;;;;;3.90;2.97;;;;;;;;;;5090931;28;20179;-88
2023/02/22 11:17:34;;;;;;;4.70;2.70;;;;;;;;;;5080926;28;20194;-88
2023/02/22 11:20:38;;;;;;;6.17;3.13;;;;;;;;;;5080484;28;20179;-88
2023/02/22 11:23:42;;;;;;;4.00;3.17;;;;;;;;;;5080531;28;20175;-88
2023/02/22 11:26:50;;;;;;;4.43;3.53;;;;;;;;;;5091420;28;20175;-88
2023/02/22 11:30:21;;;;;;;4.57;3.30;;;;;;;;;;5069069;28;20562;-88
2023/02/22 11:33:28;;;;;;;4.47;3.27;;;;;;;;;;5068877;28;20175;-88
2023/02/22 11:36:39;;;;;;;5.83;3.20;;;;;;;;;;5069089;28;20179;-88
2023/02/22 11:39:44;;;;;;;4.80;3.07;;;;;;;;;;5091949;28;20222;-88
2023/02/22 11:43:06;;;;;;;6.70;3.40;;;;;;;;;;5080789;28;20558;-89
2023/02/22 11:46:15;;;;;;;3.70;3.20;;;;;;;;;;5079368;28;20183;-88
2023/02/22 11:49:21;;;;;;;5.30;3.57;;;;;;;;;;5080195;28;20222;-89
2023/02/22 11:52:45;;;;;;;4.67;3.50;;;;;;;;;;5080437;28;20194;-88
2023/02/22 11:55:49;;;;;;;5.27;3.50;;;;;;;;;;5080412;28;20183;-88
2023/02/22 11:59:35;;;;;;;6.17;3.20;;;;;;;;;;5081119;28;20222;-89
2023/02/22 12:03:10;;;;;;;4.83;4.33;;;;;;;;;;5079742;28;20207;-89
2023/02/22 12:06:28;;;;;;;5.50;3.60;;;;;;;;;;5067820;28;20641;-89
2023/02/22 12:09:35;;;;;;;5.30;3.63;;;;;;;;;;5079120;28;20218;-89
2023/02/22 12:13:27;;;;;;;6.67;3.83;;;;;;;;;;5067919;28;20195;-88
2023/02/22 12:16:38;;;;;;;4.93;3.00;;;;;;;;;;5079540;28;20183;-88
2023/02/22 12:19:47;;;;;;;5.90;3.40;;;;;;;;;;5079893;28;20211;-89
2023/02/22 12:23:05;;;;;;;6.17;3.23;;;;;;;;;;5067439;28;20207;-88
2023/02/22 12:26:15;;;;;;;5.63;3.37;;;;;;;;;;5090603;28;20187;-88
2023/02/22 12:29:52;;;;;;;6.10;3.57;;;;;;;;;;5066968;28;20424;-88
2023/02/22 12:32:59;;;;;;;3.83;3.43;;;;;;;;;;5077861;28;20175;-88
2023/02/22 12:36:04;;;;;;;4.43;3.60;;;;;;;;;;5066902;28;20199;-88
2023/02/22 12:39:43;;;;;;;5.13;3.50;;;;;;;;;;5077703;28;20230;-88
2023/02/22 12:42:57;;;;;;;4.23;3.83;;;;;;;;;;5065532;28;20175;-89
2023/02/22 12:46:08;;;;;;;4.57;3.50;;;;;;;;;;5076588;28;20179;-88
2023/02/22 12:49:25;;;;;;;5.70;4.10;;;;;;;;;;5075898;28;20219;-88
2023/02/22 12:52:43;;;;;;;5.13;3.80;;;;;;;;;;5075622;28;20207;-88
2023/02/22 12:55:53;;;;;;;4.13;3.53;;;;;;;;;;5063872;28;20651;-89
2023/02/22 12:59:21;;;;;;;4.13;3.27;;;;;;;;;;5063919;28;20218;-89
2023/02/22 13:02:35;;;;;;;5.30;3.70;;;;;;;;;;5074999;28;20175;-89
2023/02/22 13:05:40;;;;;;;5.53;4.03;;;;;;;;;;5063006;28;20677;-89
2023/02/22 13:09:17;;;;;;;5.73;3.90;;;;;;;;;;5074334;28;20549;-89
2023/02/22 13:12:21;;;;;;;7.07;3.77;;;;;;;;;;5074161;28;20206;-89
2023/02/22 13:15:40;;;;;;;3.93;3.53;;;;;;;;;;5073891;28;20637;-89
2023/02/22 13:19:20;;;;;;;4.53;3.63;;;;;;;;;;5073288;28;20700;-89
2023/02/22 13:22:33;;;;;;;5.37;4.13;;;;;;;;;;5073230;28;20178;-89
2023/02/22 13:25:58;;;;;;;4.67;3.90;;;;;;;;;;5073620;28;20187;-89
2023/02/22 13:29:07;;;;;;;5.07;4.27;;;;;;;;;;5073124;28;20215;-89
2023/02/22 13:32:23;;;;;;;6.23;3.70;;;;;;;;;;5073061;28;20206;-88
2023/02/22 13:36:08;;;;;;;5.33;3.97;;;;;;;;;;5073201;28;20175;-88
2023/02/22 13:39:38;;;;;;;6.37;3.93;;;;;;;;;;5054323;28;20222;-89
2023/02/22 13:42:58;;;;;;;4.73;3.60;;;;;;;;;;5072795;28;20183;-89
2023/02/22 13:46:16;;;;;;;5.40;4.43;;;;;;;;;;5072721;28;20182;-88
2023/02/22 13:49:39;;;;;;;15.43;5.07;;;;;;;;;;5072127;28;20218;-88
2023/02/22 13:52:46;;;;;;;5.93;4.13;;;;;;;;;;5072175;28;20214;-89
2023/02/22 13:55:55;;;;;;;5.27;4.00;;;;;;;;;;5076162;28;20183;-88
2023/02/22 13:59:03;;;;;;;5.70;3.77;;;;;;;;;;5088587;28;20210;-88
2023/02/22 14:02:31;;;;;;;6.20;3.43;;;;;;;;;;5076102;28;20199;-88
2023/02/22 14:05:41;;;;;;;4.80;3.60;;;;;;;;;;5076580;28;20178;-89
2023/02/22 14:08:46;;;;;;;4.17;3.70;;;;;;;;;;5075663;28;20218;-89
2023/02/22 14:11:53;;;;;;;4.93;3.43;;;;;;;;;;5064222;28;20253;-89
2023/02/22 14:15:09;;;;;;;5.33;3.63;;;;;;;;;;5087209;28;20510;-89
2023/02/22 14:18:17;;;;;;;3.60;3.17;;;;;;;;;;5064286;28;20215;-89
2023/02/22 14:21:21;;;;;;;3.97;3.30;;;;;;;;;;5086940;28;20179;-89
2023/02/22 14:24:26;;;;;;;4.30;3.50;;;;;;;;;;5075765;28;20179;-89
2023/02/22 14:27:39;;;;;;;4.20;3.10;;;;;;;;;;5063477;28;20634;-88
2023/02/22 14:30:44;;;;;;;4.20;3.10;;;;;;;;;;5074706;28;20183;-89
2023/02/22 14:34:08;;;;;;;4.57;2.80;;;;;;;;;;5074577;28;20207;-88
2023/02/22 14:37:23;;;;;;;4.27;2.83;;;;;;;;;;5075121;28;20187;-88
2023/02/22 14:40:30;;;;;;;2.33;2.13;;;;;;;;;;5074896;28;20175;-89
2023/02/22 14:43:36;;;;;;;2.00;1.53;;;;;;;;;;5074608;28;20179;-89
2023/02/22 14:46:43;;;;;;;1.53;1.43;;;;;;;;;;5074801;28;20595;-89
2023/02/22 14:49:51;;;;;;;3.30;1.87;;;;;;;;;;5073839;28;20218;-89
2023/02/22 14:53:01;;;;;;;3.23;2.50;;;;;;;;;;5073927;28;20669;-88
2023/02/22 14:56:14;;;;;;;3.97;2.17;;;;;;;;;;5074052;28;20179;-88
2023/02/22 14:59:24;;;;;;;3.07;2.20;;;;;;;;;;5085497;28;20214;-89
2023/02/22 15:02:37;;;;;;;2.87;2.03;;;;;;;;;;5085598;28;20199;-89
2023/02/22 15:05:42;;;;;;;5.63;2.27;;;;;;;;;;5061286;28;20179;-89
2023/02/22 15:08:47;;;;;;;4.23;2.13;;;;;;;;;;5062834;28;20214;-89
2023/02/22 15:12:12;;;;;;;4.13;2.13;;;;;;;;;;5074058;28;20179;-89
2023/02/22 15:15:20;;;;;;;4.60;1.90;;;;;;;;;;5074348;28;20211;-88
2023/02/22 15:18:39;;;;;;;4.23;2.43;;;;;;;;;;5073910;28;20218;-89
2023/02/22 15:21:44;;;;;;;2.47;2.10;;;;;;;;;;5073902;28;20198;-89
2023/02/22 15:25:04;;;;;;;1.90;1.63;;;;;;;;;;5073360;28;20179;-89
2023/02/22 15:28:13;;;;;;;3.10;1.50;;;;;;;;;;5075971;28;20210;-89
2023/02/22 15:31:26;;;;;;;2.50;1.60;;;;;;;;;;5074242;28;20183;-89
2023/02/22 15:34:32;;;;;;;3.57;2.17;;;;;;;;;;5062937;28;20203;-89
2023/02/22 15:37:36;;;;;;;2.60;1.90;;;;;;;;;;5073749;28;20198;-89
2023/02/22 15:40:41;;;;;;;1.80;1.30;;;;;;;;;;5063849;28;20183;-89
2023/02/22 15:44:05;;;;;;;2.10;1.43;;;;;;;;;;5073578;28;20179;-89
2023/02/22 15:47:18;;;;;;;4.30;1.70;;;;;;;;;;5073828;28;20539;-89
2023/02/22 15:50:32;;;;;;;2.50;1.50;;;;;;;;;;5074007;28;20179;-89
2023/02/22 15:53:47;;;;;;;3.27;1.60;;;;;;;;;;5073687;28;20551;-89
2023/02/22 15:56:55;;;;;;;1.80;1.17;;;;;;;;;;5061938;28;20199;-89
2023/02/22 15:59:59;;;;;;;1.70;1.43;;;;;;;;;;5073862;28;20175;-89
2023/02/22 16:03:17;;;;;;;3.97;1.60;;;;;;;;;;5086380;28;20175;-89
2023/02/22 16:06:39;;;;;;;1.97;1.50;;;;;;;;;;5089017;28;20183;-89
2023/02/22 16:09:48;;;;;;;2.20;1.37;;;;;;;;;;5077802;28;20214;-89
2023/02/22 16:13:08;;;;;;;2.80;1.43;;;;;;;;;;5078696;28;20558;-89
2023/02/22 16:16:15;;;;;;;1.83;1.20;;;;;;;;;;5080006;28;20183;-88
2023/02/22 16:19:36;;;;;;;2.63;1.30;;;;;;;;;;5080449;28;20219;-88
2023/02/22 16:22:47;;;;;;;3.20;1.20;;;;;;;;;;5080281;28;20174;-88
2023/02/22 16:26:19;;;;;;;4.17;1.80;;;;;;;;;;5069024;28;20187;-88
2023/02/22 16:29:25;;;;;;;6.60;4.20;;;;;;;;;;5081674;28;20215;-88
2023/02/22 16:32:30;;;;;;;4.90;3.60;;;;;;;;;;5083268;28;20186;-88
2023/02/22 16:35:34;;;;;;;8.20;4.40;;;;;;;;;;5083311;28;20179;-88
2023/02/22 16:38:39;;;;;;;5.80;3.93;;;;;;;;;;5083800;28;20222;-88
2023/02/22 16:41:43;;;;;;;7.17;4.40;;;;;;;;;;5074251;28;20179;-88
2023/02/22 16:44:47;;;;;;;6.63;5.30;;;;;;;;;;5074189;28;20178;-88
2023/02/22 16:47:53;;;;;;;14.73;10.83;;;;;;;;;;5082793;28;20542;-88
2023/02/22 16:51:00;;;;;;;13.33;11.20;;;;;;;;;;5069428;28;20212;-88
2023/02/22 16:54:09;;;;;;;10.93;9.07;;;;;;;;;;5066704;28;20222;-88
2023/02/22 16:57:20;;;;;;;10.63;7.93;;;;;;;;;;5078149;28;20692;-88
2023/02/22 17:00:30;;;;;;;12.77;9.33;;;;;;;;;;5076391;28;20196;-89
2023/02/22 17:03:35;;;;;;;10.17;8.00;;;;;;;;;;5085319;28;20198;-88
2023/02/22 17:06:39;;;;;;;11.53;7.70;;;;;;;;;;5074044;28;20185;-89
2023/02/22 17:09:44;;;;;;;9.33;6.77;;;;;;;;;;5085967;28;20218;-88
2023/02/22 17:12:52;;;;;;;7.90;5.90;;;;;;;;;;5073995;28;20175;-89
2023/02/22 17:15:56;;;;;;;9.43;6.20;;;;;;;;;;5073684;28;20179;-88
2023/02/22 17:19:03;;;;;;;9.93;7.83;;;;;;;;;;5072881;28;20214;-88
2023/02/22 17:22:17;;;;;;;6.87;4.30;;;;;;;;;;5074679;28;20657;-88
2023/02/22 17:25:25;;;;;;;8.20;4.17;;;;;;;;;;5074203;28;20175;-88
2023/02/22 17:28:30;;;;;;;7.07;4.50;;;;;;;;;;5074129;28;20210;-88
2023/02/22 17:31:35;;;;;;;8.67;5.47;;;;;;;;;;5074471;28;20187;-88
2023/02/22 17:34:39;;;;;;;6.23;4.93;;;;;;;;;;5074198;28;20546;-88
2023/02/22 17:37:45;;;;;;;8.07;5.43;;;;;;;;;;5073778;28;20634;-88
2023/02/22 17:40:53;;;;;;;7.93;5.30;;;;;;;;;;5073945;28;20178;-88
2023/02/22 17:43:58;;;;;;;6.90;5.80;;;;;;;;;;5073514;28;20178;-88
2023/02/22 17:47:02;;;;;;;7.07;6.37;;;;;;;;;;5073395;28;20525;-88
2023/02/22 17:50:09;;;;;;;11.10;6.57;;;;;;;;;;5073147;28;20190;-88
2023/02/22 17:53:14;;;;;;;11.07;6.03;;;;;;;;;;5073213;28;20190;-88
2023/02/22 17:56:19;;;;;;;8.03;5.27;;;;;;;;;;5073761;28;20195;-88
2023/02/22 17:59:23;;;;;;;6.63;5.53;;;;;;;;;;5074045;28;20214;-88
2023/02/22 18:02:27;;;;;;;5.80;4.63;;;;;;;;;;5074065;28;20175;-88
2023/02/22 18:05:37;;;;;;;6.87;5.17;;;;;;;;;;5073409;28;20171;-88
2023/02/22 18:08:41;;;;;;;7.30;5.40;;;;;;;;;;5062099;28;20210;-88
2023/02/22 18:11:46;;;;;;;6.63;4.70;;;;;;;;;;5062241;28;20182;-88
2023/02/22 18:14:52;;;;;;;9.13;5.73;;;;;;;;;;5073980;28;20210;-88
2023/02/22 18:17:57;;;;;;;6.60;4.87;;;;;;;;;;5084193;28;20207;-88
2023/02/22 18:21:02;;;;;;;6.20;4.57;;;;;;;;;;5062172;28;20194;-88
2023/02/22 18:24:06;;;;;;;9.40;4.80;;;;;;;;;;5084856;28;20630;-88
2023/02/22 18:27:11;;;;;;;6.10;4.53;;;;;;;;;;5073607;28;20183;-88
2023/02/22 18:30:15;;;;;;;6.30;4.70;;;;;;;;;;5072725;28;20183;-88
2023/02/22 18:33:19;;;;;;;6.33;4.20;;;;;;;;;;5072936;28;20423;-88
2023/02/22 18:36:24;;;;;;;6.23;4.50;;;;;;;;;;5072482;28;20183;-88
2023/02/22 18:39:32;;;;;;;6.77;4.60;;;;;;;;;;5073756;28;20230;-88
2023/02/22 18:42:38;;;;;;;9.67;5.13;;;;;;;;;;5076002;28;20182;-88
2023/02/22 18:45:42;;;;;;;9.93;5.50;;;;;;;;;;5065391;28;20175;-88
2023/02/22 18:48:47;;;;;;;6.77;4.60;;;;;;;;;;5076787;28;20222;-88
2023/02/22 18:51:51;;;;;;;8.27;5.20;;;;;;;;;;5088621;28;20198;-88
2023/02/22 18:54:56;;;;;;;7.63;5.73;;;;;;;;;;5076586;28;20219;-88
2023/02/22 18:58:00;;;;;;;7.43;5.63;;;;;;;;;;5089150;28;20218;-88
2023/02/22 19:01:06;;;;;;;6.50;4.87;;;;;;;;;;5076795;28;20642;-88
2023/02/22 19:04:11;;;;;;;9.33;5.70;;;;;;;;;;5065601;28;20171;-88
2023/02/22 19:07:17;;;;;;;6.97;5.90;;;;;;;;;;5077029;28;20183;-88
2023/02/22 19:10:21;;;;;;;7.37;5.80;;;;;;;;;;5077192;28;20179;-88
2023/02/22 19:13:25;;;;;;;8.27;5.73;;;;;;;;;;5077110;28;20178;-88
2023/02/22 19:16:30;;;;;;;8.60;5.73;;;;;;;;;;5076866;28;20519;-88
2023/02/22 19:19:35;;;;;;;6.60;5.37;;;;;;;;;;5077397;28;20218;-88
2023/02/22 19:22:39;;;;;;;10.40;6.10;;;;;;;;;;5076220;28;20183;-88
2023/02/22 19:25:46;;;;;;;7.50;5.63;;;;;;;;;;5077124;28;20171;-88
2023/02/22 19:28:52;;;;;;;7.10;5.60;;;;;;;;;;5087538;28;20218;-88
2023/02/22 19:31:57;;;;;;;7.70;5.53;;;;;;;;;;5076078;28;20190;-88
2023/02/22 19:35:01;;;;;;;8.57;6.37;;;;;;;;;;5075970;28;20219;-88
2023/02/22 19:38:05;;;;;;;8.20;5.90;;;;;;;;;;5076169;28;20218;-88
2023/02/22 19:41:17;;;;;;;8.10;6.07;;;;;;;;;;5063899;28;20182;-88
2023/02/22 19:44:23;;;;;;;7.60;5.73;;;;;;;;;;5074665;28;20175;-88
2023/02/22 19:47:27;;;;;;;11.63;5.87;;;;;;;;;;5075003;28;20179;-88
2023/02/22 19:50:31;;;;;;;8.07;6.17;;;;;;;;;;5074667;28;20175;-88
2023/02/22 19:53:40;;;;;;;7.77;6.07;;;;;;;;;;5074864;28;20661;-88
2023/02/22 19:56:49;;;;;;;6.37;5.30;;;;;;;;;;5075181;28;20526;-88
2023/02/22 19:59:53;;;;;;;8.27;5.87;;;;;;;;;;5074355;28;20222;-88
2023/02/22 20:03:04;;;;;;;8.83;5.03;;;;;;;;;;5074527;28;20182;-88
2023/02/22 20:06:10;;;;;;;6.97;5.70;;;;;;;;;;5074227;28;20175;-88
2023/02/22 20:09:20;;;;;;;8.93;6.43;;;;;;;;;;5062882;28;20219;-88
2023/02/22 20:12:24;;;;;;;8.93;5.87;;;;;;;;;;5074091;28;20183;-88
2023/02/22 20:15:28;;;;;;;10.17;6.93;;;;;;;;;;5073784;28;20210;-88
2023/02/22 20:18:33;;;;;;;8.70;5.90;;;;;;;;;;5062128;28;20218;-88
2023/02/22 20:21:37;;;;;;;8.17;6.07;;;;;;;;;;5074402;28;20187;-88
2023/02/22 20:24:41;;;;;;;12.17;6.10;;;;;;;;;;5074439;28;20195;-88
2023/02/22 20:27:45;;;;;;;8.23;6.20;;;;;;;;;;5085540;28;20179;-88
2023/02/22 20:30:50;;;;;;;7.90;6.07;;;;;;;;;;5085507;28;20175;-88
2023/02/22 20:33:56;;;;;;;8.83;6.03;;;;;;;;;;5073702;28;20183;-88
2023/02/22 20:37:01;;;;;;;8.57;5.90;;;;;;;;;;5085902;28;20530;-88
2023/02/22 20:40:06;;;;;;;8.17;5.90;;;;;;;;;;5074375;28;20206;-88
2023/02/22 20:43:10;;;;;;;11.00;6.17;;;;;;;;;;5073481;28;20249;-88
2023/02/22 20:46:15;;;;;;;9.57;6.87;;;;;;;;;;5073864;28;20179;-88
2023/02/22 20:49:20;;;;;;;6.90;5.40;;;;;;;;;;5061533;28;20222;-88
2023/02/22 20:52:24;;;;;;;7.87;6.17;;;;;;;;;;5073690;28;20187;-88
2023/02/22 20:55:29;;;;;;;12.87;5.90;;;;;;;;;;5073885;28;20211;-88
2023/02/22 20:58:34;;;;;;;9.23;6.53;;;;;;;;;;5085232;28;20214;-88
2023/02/22 21:01:38;;;;;;;8.07;6.17;;;;;;;;;;5073669;28;20194;-88
2023/02/22 21:04:42;;;;;;;7.97;6.50;;;;;;;;;;5062484;28;20174;-88
2023/02/22 21:07:47;;;;;;;7.57;6.10;;;;;;;;;;5073456;28;20182;-88
2023/02/22 21:10:51;;;;;;;8.93;5.90;;;;;;;;;;5072966;28;20179;-88
2023/02/22 21:13:56;;;;;;;9.80;6.43;;;;;;;;;;5073075;28;20518;-88
2023/02/22 21:17:03;;;;;;;10.03;6.70;;;;;;;;;;5072814;28;20653;-88
2023/02/22 21:20:11;;;;;;;8.23;6.30;;;;;;;;;;5072738;28;20175;-88
2023/02/22 21:23:15;;;;;;;10.83;7.10;;;;;;;;;;5072668;28;20179;-88
2023/02/22 21:26:26;;;;;;;11.20;7.23;;;;;;;;;;5060752;28;20175;-88
2023/02/22 21:29:33;;;;;;;12.93;7.83;;;;;;;;;;5061723;28;20214;-88
2023/02/22 21:32:37;;;;;;;11.13;7.93;;;;;;;;;;5061284;28;20645;-88
2023/02/22 21:35:48;;;;;;;11.67;7.97;;;;;;;;;;5072489;28;20206;-88
2023/02/22 21:38:58;;;;;;;13.67;7.77;;;;;;;;;;5072388;28;20226;-88
2023/02/22 21:42:06;;;;;;;16.47;9.73;;;;;;;;;;5073192;28;20183;-88
2023/02/22 21:45:11;;;;;;;16.43;9.60;;;;;;;;;;5072891;28;20534;-88
2023/02/22 21:48:15;;;;;;;16.90;10.30;;;;;;;;;;5072450;28;20214;-88
2023/02/22 21:51:24;;;;;;;19.40;11.50;;;;;;;;;;5073092;28;20190;-87
2023/02/22 21:54:28;;;;;;;17.53;11.17;;;;;;;;;;5060689;28;20203;-87
2023/02/22 21:57:32;;;;;;;22.03;11.87;;;;;;;;;;5060758;28;20186;-87
2023/02/22 22:00:41;;;;;;;18.13;10.83;;;;;;;;;;5072253;28;20664;-88
2023/02/22 22:03:45;;;;;;;19.53;11.20;;;;;;;;;;5072364;28;20570;-88
2023/02/22 22:06:51;;;;;;;18.70;10.47;;;;;;;;;;5061029;28;20175;-88
2023/02/22 22:09:55;;;;;;;15.07;10.30;;;;;;;;;;5072165;28;20221;-88
2023/02/22 22:13:00;;;;;;;15.10;9.73;;;;;;;;;;5060264;28;20185;-87
2023/02/22 22:16:13;;;;;;;13.80;9.33;;;;;;;;;;5073747;28;20206;-88
2023/02/22 22:19:17;;;;;;;12.57;8.10;;;;;;;;;;5075338;28;20219;-87
2023/02/22 22:22:22;;;;;;;15.27;8.67;;;;;;;;;;5086660;28;20179;-87
2023/02/22 22:25:27;;;;;;;12.53;8.27;;;;;;;;;;5076413;28;20179;-87
2023/02/22 22:28:31;;;;;;;11.97;8.23;;;;;;;;;;5064242;28;20218;-88
2023/02/22 22:31:36;;;;;;;14.43;8.63;;;;;;;;;;5064110;28;20182;-87
2023/02/22 22:34:41;;;;;;;14.33;8.07;;;;;;;;;;5064003;28;20175;-88
2023/02/22 22:37:49;;;;;;;12.13;8.87;;;;;;;;;;5075525;28;20183;-88
2023/02/22 22:40:59;;;;;;;13.13;9.23;;;;;;;;;;5063741;28;20183;-88
2023/02/22 22:44:05;;;;;;;18.73;11.10;;;;;;;;;;5075079;28;20179;-87
2023/02/22 22:47:12;;;;;;;13.13;9.70;;;;;;;;;;5075083;28;20190;-88
2023/02/22 22:50:18;;;;;;;16.37;9.83;;;;;;;;;;5064002;28;20179;-87
2023/02/22 22:53:22;;;;;;;17.33;9.53;;;;;;;;;;5075405;28;20527;-88
2023/02/22 22:56:27;;;;;;;12.93;9.77;;;;;;;;;;5075388;28;20202;-88
2023/02/22 22:59:32;;;;;;;17.67;10.20;;;;;;;;;;5086651;28;20218;-88
2023/02/22 23:02:37;;;;;;;15.70;11.23;;;;;;;;;;5075329;28;20185;-88
2023/02/22 23:05:41;;;;;;;16.30;10.97;;;;;;;;;;5086699;28;20186;-88
2023/02/22 23:08:46;;;;;;;14.00;9.90;;;;;;;;;;5063621;28;20218;-87
2023/02/22 23:11:52;;;;;;;19.30;11.00;;;;;;;;;;5074821;28;20179;-87
2023/02/22 23:14:57;;;;;;;15.70;10.63;;;;;;;;;;5063417;28;20203;-88
2023/02/22 23:18:02;;;;;;;16.83;10.57;;;;;;;;;;5074346;28;20226;-87
2023/02/22 23:21:06;;;;;;;18.00;12.20;;;;;;;;;;5063997;28;20180;-88
2023/02/22 23:24:16;;;;;;;19.00;12.67;;;;;;;;;;5086489;28;20661;-87
2023/02/22 23:27:22;;;;;;;15.77;11.67;;;;;;;;;;5061841;28;20673;-88
2023/02/22 23:30:26;;;;;;;17.03;11.30;;;;;;;;;;5063458;28;20206;-87
2023/02/22 23:33:30;;;;;;;19.90;14.40;;;;;;;;;;5074460;28;20182;-87
2023/02/22 23:36:34;;;;;;;22.77;16.57;;;;;;;;;;5085982;28;20214;-88
2023/02/22 23:39:39;;;;;;;24.63;16.93;;;;;;;;;;5062484;28;20230;-88
2023/02/22 23:42:47;;;;;;;22.53;15.37;;;;;;;;;;5073957;28;20194;-87
2023/02/22 23:45:55;;;;;;;25.80;17.03;;;;;;;;;;5062114;28;20182;-87
2023/02/22 23:49:02;;;;;;;24.50;15.50;;;;;;;;;;5085269;28;20223;-88
2023/02/22 23:52:07;;;;;;;19.17;14.23;;;;;;;;;;5073443;28;20186;-88
2023/02/22 23:55:11;;;;;;;23.53;14.63;;;;;;;;;;5073285;28;20186;-87
2023/02/22 23:58:16;;;;;;;19.80;13.90;;;;;;;;;;5073148;28;20214;-87
